createdAt,value
2019-02-06T00:00:53.918Z,3.97
2019-02-06T00:02:14.829Z,3.95
2019-02-06T00:03:21.475Z,3.94
2019-02-06T00:04:25.622Z,3.91
2019-02-06T00:05:29.603Z,3.88
2019-02-06T00:06:33.575Z,3.88
2019-02-06T00:07:37.642Z,3.87
2019-02-06T00:08:41.870Z,3.88
2019-02-06T00:09:46.120Z,3.88
2019-02-06T00:10:50.332Z,3.88
2019-02-06T00:11:54.251Z,3.88
2019-02-06T00:12:58.200Z,3.88
2019-02-06T00:14:02.458Z,3.88
2019-02-06T00:15:06.499Z,3.88
2019-02-06T00:16:10.718Z,3.89
2019-02-06T00:17:14.686Z,3.90
2019-02-06T00:18:18.960Z,3.89
2019-02-06T00:19:23.423Z,3.90
2019-02-06T00:20:27.631Z,3.89
2019-02-06T00:21:31.604Z,3.89
2019-02-06T00:22:35.579Z,3.89
2019-02-06T00:23:40.080Z,3.90
2019-02-06T00:24:43.902Z,3.90
2019-02-06T00:25:48.192Z,3.93
2019-02-06T00:26:52.418Z,3.93
2019-02-06T00:27:56.559Z,3.92
2019-02-06T00:29:00.562Z,3.92
2019-02-06T00:30:05.833Z,3.91
2019-02-06T00:31:09.813Z,3.91
2019-02-06T00:32:13.782Z,3.92
2019-02-06T00:33:17.923Z,3.92
2019-02-06T00:34:21.758Z,3.91
2019-02-06T00:35:26.272Z,3.91
2019-02-06T00:36:30.275Z,3.91
2019-02-06T00:37:34.427Z,3.89
2019-02-06T00:38:38.747Z,3.88
2019-02-06T00:39:42.938Z,3.89
2019-02-06T00:40:46.910Z,3.88
2019-02-06T00:41:51.118Z,3.88
2019-02-06T00:42:55.019Z,3.86
2019-02-06T00:43:58.929Z,3.86
2019-02-06T00:45:03.008Z,3.85
2019-02-06T00:46:07.474Z,3.84
2019-02-06T00:47:11.371Z,3.80
2019-02-06T00:48:15.523Z,3.76
2019-02-06T00:49:19.746Z,3.75
2019-02-06T00:50:23.962Z,3.73
2019-02-06T00:51:28.100Z,3.72
2019-02-06T00:52:32.003Z,3.71
2019-02-06T00:53:35.979Z,3.69
2019-02-06T00:54:40.087Z,3.69
2019-02-06T00:55:44.306Z,3.66
2019-02-06T00:56:48.439Z,3.65
2019-02-06T00:57:52.422Z,3.64
2019-02-06T00:58:56.386Z,3.64
2019-02-06T01:00:00.624Z,3.62
2019-02-06T01:01:05.359Z,3.63
2019-02-06T01:02:09.576Z,3.62
2019-02-06T01:03:33.117Z,3.63
2019-02-06T01:04:56.189Z,3.62
2019-02-06T01:07:42.484Z,3.58
2019-02-06T01:08:46.383Z,3.55
2019-02-06T01:09:50.294Z,3.55
2019-02-06T01:10:54.519Z,3.55
2019-02-06T01:11:59.002Z,3.55
2019-02-06T01:13:03.254Z,3.54
2019-02-06T01:14:07.231Z,3.55
2019-02-06T01:15:11.864Z,3.55
2019-02-06T01:16:15.753Z,3.55
2019-02-06T01:17:19.727Z,3.55
2019-02-06T01:18:23.806Z,3.56
2019-02-06T01:19:27.940Z,3.55
2019-02-06T01:20:32.107Z,3.52
2019-02-06T01:21:36.078Z,3.51
2019-02-06T01:22:40.398Z,3.49
2019-02-06T01:23:44.610Z,3.48
2019-02-06T01:24:49.091Z,3.48
2019-02-06T01:25:53.549Z,3.47
2019-02-06T01:26:57.869Z,3.45
2019-02-06T01:28:01.844Z,3.45
2019-02-06T01:29:06.061Z,3.44
2019-02-06T01:30:16.644Z,3.45
2019-02-06T01:31:23.410Z,3.44
2019-02-06T01:32:27.439Z,3.44
2019-02-06T01:33:50.349Z,3.43
2019-02-06T01:35:13.400Z,3.43
2019-02-06T01:36:36.423Z,3.44
2019-02-06T01:37:59.517Z,3.41
2019-02-06T01:40:47.474Z,3.31
2019-02-06T01:41:51.647Z,3.27
2019-02-06T01:43:14.670Z,3.25
2019-02-06T01:44:18.578Z,3.24
2019-02-06T01:45:43.341Z,3.22
2019-02-06T01:47:06.471Z,3.22
2019-02-06T01:48:29.486Z,3.25
2019-02-06T01:49:52.831Z,3.27
2019-02-06T01:51:15.879Z,3.25
2019-02-06T01:52:21.582Z,3.27
2019-02-06T01:53:46.264Z,3.20
2019-02-06T01:55:09.661Z,3.16
2019-02-06T01:58:14.743Z,3.03
2019-02-06T01:59:37.766Z,3.00
2019-02-06T02:02:28.969Z,2.99
2019-02-06T02:03:52.014Z,2.98
2019-02-06T02:06:22.024Z,2.98
2019-02-06T02:07:26.275Z,2.97
2019-02-06T02:08:32.414Z,2.97
2019-02-06T02:09:36.702Z,2.97
2019-02-06T02:10:40.971Z,2.97
2019-02-06T02:11:44.991Z,2.97
2019-02-06T02:12:49.178Z,2.98
2019-02-06T02:13:53.651Z,2.85
2019-02-06T02:14:57.974Z,2.99
2019-02-06T02:16:02.228Z,2.99
2019-02-06T02:17:06.233Z,2.99
2019-02-06T02:18:10.474Z,2.98
2019-02-06T02:19:14.828Z,2.98
2019-02-06T02:20:23.112Z,2.97
2019-02-06T02:21:27.110Z,2.97
2019-02-06T02:22:31.626Z,2.98
2019-02-06T02:23:35.616Z,2.96
2019-02-06T02:24:39.921Z,2.97
2019-02-06T02:25:44.111Z,2.96
2019-02-06T02:26:48.637Z,2.96
2019-02-06T02:28:11.693Z,2.95
2019-02-06T02:29:34.995Z,2.96
2019-02-06T02:30:58.126Z,2.95
2019-02-06T02:32:21.172Z,2.95
2019-02-06T02:35:26.488Z,2.93
2019-02-06T02:36:49.887Z,2.94
2019-02-06T02:39:54.955Z,2.96
2019-02-06T02:41:18.364Z,2.95
2019-02-06T02:42:41.407Z,2.90
2019-02-06T02:44:04.904Z,2.90
2019-02-06T02:45:49.274Z,2.84
2019-02-06T02:47:12.715Z,2.89
2019-02-06T02:48:35.625Z,2.81
2019-02-06T02:49:40.179Z,2.79
2019-02-06T02:52:26.283Z,2.81
2019-02-06T02:53:49.914Z,2.83
2019-02-06T02:55:13.264Z,2.86
2019-02-06T02:56:36.320Z,2.88
2019-02-06T02:57:40.580Z,2.90
2019-02-06T02:59:03.975Z,2.82
2019-02-06T03:02:15.931Z,2.85
2019-02-06T03:03:58.207Z,2.81
2019-02-06T03:05:21.185Z,2.83
2019-02-06T03:06:44.334Z,2.81
2019-02-06T03:08:07.384Z,2.80
2019-02-06T03:09:12.766Z,2.82
2019-02-06T03:10:17.061Z,2.82
2019-02-06T03:13:22.387Z,2.81
2019-02-06T03:14:45.710Z,2.89
2019-02-06T03:16:09.068Z,2.88
2019-02-06T03:17:32.062Z,2.93
2019-02-06T03:18:57.160Z,2.91
2019-02-06T03:21:24.618Z,2.84
2019-02-06T03:22:28.469Z,2.87
2019-02-06T03:23:51.507Z,2.88
2019-02-06T03:25:14.402Z,2.92
2019-02-06T03:26:37.423Z,2.89
2019-02-06T03:27:41.415Z,2.99
2019-02-06T03:29:04.707Z,2.99
2019-02-06T03:30:49.092Z,2.98
2019-02-06T03:32:12.262Z,2.94
2019-02-06T03:33:35.523Z,2.88
2019-02-06T03:34:41.200Z,2.85
2019-02-06T03:36:05.945Z,2.81
2019-02-06T03:37:28.920Z,2.83
2019-02-06T03:38:52.283Z,2.85
2019-02-06T03:39:56.399Z,2.77
2019-02-06T03:41:19.427Z,2.81
2019-02-06T03:43:46.737Z,2.77
2019-02-06T03:45:30.959Z,2.81
2019-02-06T03:48:17.596Z,2.74
2019-02-06T03:51:15.412Z,2.79
2019-02-06T03:52:28.396Z,2.76
2019-02-06T03:53:32.527Z,2.78
2019-02-06T03:54:36.722Z,2.77
2019-02-06T03:55:59.993Z,2.75
2019-02-06T03:57:23.007Z,2.74
2019-02-06T03:58:26.931Z,2.75
2019-02-06T03:59:50.287Z,2.69
2019-02-06T04:01:13.253Z,2.72
2019-02-06T04:02:17.747Z,2.70
2019-02-06T04:03:41.115Z,2.68
2019-02-06T04:05:04.763Z,2.62
2019-02-06T04:06:27.725Z,2.56
2019-02-06T04:07:50.823Z,2.58
2019-02-06T04:09:14.228Z,2.62
2019-02-06T04:10:57.699Z,2.61
2019-02-06T04:12:20.726Z,2.63
2019-02-06T04:13:43.936Z,2.68
2019-02-06T04:15:06.838Z,2.69
2019-02-06T04:16:30.034Z,2.70
2019-02-06T04:17:54.531Z,2.72
2019-02-06T04:18:58.702Z,2.77
2019-02-06T04:20:22.072Z,2.83
2019-02-06T04:21:45.426Z,2.84
2019-02-06T04:24:51.739Z,2.94
2019-02-06T04:25:56.025Z,2.93
2019-02-06T04:27:19.164Z,2.84
2019-02-06T04:30:44.709Z,2.79
2019-02-06T04:33:49.687Z,2.78
2019-02-06T04:35:12.967Z,2.75
2019-02-06T04:36:17.374Z,2.73
2019-02-06T04:37:40.403Z,2.74
2019-02-06T04:38:44.934Z,2.74
2019-02-06T04:40:08.184Z,2.73
2019-02-06T04:41:31.542Z,2.80
2019-02-06T04:42:56.478Z,2.75
2019-02-06T04:44:00.638Z,2.77
2019-02-06T04:45:44.367Z,2.69
2019-02-06T04:47:07.605Z,2.63
2019-02-06T04:48:32.230Z,2.56
2019-02-06T04:49:36.823Z,2.41
2019-02-06T04:52:22.725Z,2.56
2019-02-06T04:53:26.918Z,2.52
2019-02-06T04:54:50.128Z,2.51
2019-02-06T04:55:54.629Z,2.55
2019-02-06T04:57:17.586Z,2.51
2019-02-06T04:58:40.721Z,2.45
2019-02-06T05:00:03.758Z,2.42
2019-02-06T05:01:26.716Z,2.36
2019-02-06T05:04:12.692Z,2.34
2019-02-06T05:05:35.723Z,2.37
2019-02-06T05:06:40.329Z,2.33
2019-02-06T05:07:44.538Z,2.32
2019-02-06T05:12:50.824Z,2.47
2019-02-06T05:13:54.650Z,2.46
2019-02-06T05:15:17.967Z,2.49
2019-02-06T05:16:21.801Z,2.51
2019-02-06T05:19:07.921Z,2.50
2019-02-06T05:20:50.331Z,2.46
2019-02-06T05:22:13.613Z,2.46
2019-02-06T05:23:57.326Z,2.49
2019-02-06T05:25:01.868Z,2.51
2019-02-06T05:26:24.909Z,2.47
2019-02-06T05:27:30.893Z,2.49
2019-02-06T05:30:38.034Z,2.45
2019-02-06T05:32:01.050Z,2.42
2019-02-06T05:33:44.604Z,2.38
2019-02-06T05:35:07.734Z,2.40
2019-02-06T05:36:30.716Z,2.41
2019-02-06T05:41:18.323Z,2.38
2019-02-06T05:46:06.989Z,2.40
2019-02-06T05:47:30.305Z,2.39
2019-02-06T05:48:53.624Z,2.37
2019-02-06T05:50:16.678Z,2.41
2019-02-06T05:51:20.889Z,2.42
2019-02-06T05:52:44.032Z,2.36
2019-02-06T05:53:48.142Z,2.33
2019-02-06T05:55:11.498Z,2.32
2019-02-06T05:56:34.410Z,2.33
2019-02-06T05:57:57.670Z,2.32
2019-02-06T05:59:01.585Z,2.34
2019-02-06T06:00:46.532Z,2.41
2019-02-06T06:02:09.842Z,2.34
2019-02-06T06:03:15.466Z,2.31
2019-02-06T06:04:38.375Z,2.27
2019-02-06T06:06:01.303Z,2.26
2019-02-06T06:07:24.860Z,2.10
2019-02-06T06:08:29.080Z,2.23
2019-02-06T06:09:32.902Z,2.25
2019-02-06T06:10:37.050Z,2.26
2019-02-06T06:11:40.968Z,2.30
2019-02-06T06:12:45.150Z,2.26
2019-02-06T06:13:49.373Z,2.25
2019-02-06T06:14:53.521Z,2.26
2019-02-06T06:15:57.952Z,2.25
2019-02-06T06:17:01.940Z,2.29
2019-02-06T06:18:05.907Z,2.31
2019-02-06T06:19:09.804Z,2.30
2019-02-06T06:20:14.820Z,2.29
2019-02-06T06:21:19.213Z,2.30
2019-02-06T06:22:23.198Z,2.36
2019-02-06T06:23:27.269Z,2.36
2019-02-06T06:24:31.250Z,2.35
2019-02-06T06:25:35.229Z,2.34
2019-02-06T06:26:39.139Z,2.33
2019-02-06T06:27:43.126Z,2.34
2019-02-06T06:28:47.028Z,2.34
2019-02-06T06:29:51.189Z,2.35
2019-02-06T06:30:55.146Z,2.34
2019-02-06T06:31:59.117Z,2.36
2019-02-06T06:33:02.984Z,2.37
2019-02-06T06:34:07.173Z,2.37
2019-02-06T06:35:11.641Z,2.39
2019-02-06T06:36:35.039Z,2.39
2019-02-06T06:38:01.763Z,2.40
2019-02-06T06:40:48.483Z,2.40
2019-02-06T06:42:11.512Z,2.39
2019-02-06T06:43:34.410Z,2.40
2019-02-06T06:46:21.010Z,2.40
2019-02-06T06:47:44.355Z,2.40
2019-02-06T06:49:07.316Z,2.40
2019-02-06T06:50:51.979Z,2.39
2019-02-06T06:51:55.812Z,2.37
2019-02-06T06:53:19.186Z,2.36
2019-02-06T06:54:42.465Z,2.37
2019-02-06T06:56:05.486Z,2.38
2019-02-06T06:57:29.060Z,2.37
2019-02-06T06:58:34.702Z,2.40
2019-02-06T07:01:39.657Z,2.36
2019-02-06T07:03:02.684Z,2.35
2019-02-06T07:04:25.688Z,2.35
2019-02-06T07:05:50.359Z,2.35
2019-02-06T07:07:34.067Z,2.35
2019-02-06T07:08:56.975Z,2.37
2019-02-06T07:13:24.961Z,2.36
2019-02-06T07:14:48.318Z,2.36
2019-02-06T07:16:12.928Z,2.38
2019-02-06T07:17:36.283Z,2.37
2019-02-06T07:18:59.324Z,2.37
2019-02-06T07:20:03.320Z,2.38
2019-02-06T07:21:07.302Z,2.39
2019-02-06T07:22:30.267Z,2.41
2019-02-06T07:23:53.423Z,2.42
2019-02-06T07:25:16.411Z,2.43
2019-02-06T07:26:39.429Z,2.44
2019-02-06T07:29:25.812Z,2.47
2019-02-06T07:31:10.087Z,2.49
2019-02-06T07:32:36.212Z,2.51
2019-02-06T07:33:39.035Z,2.54
2019-02-06T07:35:02.196Z,2.58
2019-02-06T07:37:48.322Z,2.62
2019-02-06T07:39:13.324Z,2.67
2019-02-06T07:40:56.821Z,2.67
2019-02-06T07:43:24.006Z,2.67
2019-02-06T07:44:47.614Z,2.68
2019-02-06T07:45:51.790Z,2.69
2019-02-06T07:46:57.773Z,2.72
2019-02-06T07:48:03.756Z,2.73
2019-02-06T07:51:08.734Z,2.78
2019-02-06T07:52:32.110Z,2.80
2019-02-06T07:53:55.464Z,2.82
2019-02-06T07:55:20.576Z,2.84
2019-02-06T07:56:43.843Z,2.88
2019-02-06T07:58:06.815Z,2.90
2019-02-06T07:59:30.110Z,2.91
2019-02-06T08:00:53.161Z,2.92
2019-02-06T08:01:58.790Z,2.93
2019-02-06T08:03:04.849Z,2.96
2019-02-06T08:04:08.748Z,2.95
2019-02-06T08:05:15.132Z,2.96
2019-02-06T08:06:19.030Z,2.98
2019-02-06T08:07:22.926Z,2.98
2019-02-06T08:08:35.628Z,2.98
2019-02-06T08:09:32.626Z,3.00
2019-02-06T08:10:36.864Z,3.02
2019-02-06T08:11:41.077Z,3.04
2019-02-06T08:12:44.986Z,3.05
2019-02-06T08:13:49.058Z,3.05
2019-02-06T08:14:53.738Z,3.06
2019-02-06T08:15:57.694Z,3.08
2019-02-06T08:17:01.630Z,3.08
2019-02-06T08:18:06.650Z,3.10
2019-02-06T08:19:11.245Z,3.12
2019-02-06T08:20:16.866Z,3.14
2019-02-06T08:21:21.030Z,3.17
2019-02-06T08:22:24.930Z,3.18
2019-02-06T08:23:48.134Z,3.20
2019-02-06T08:25:11.026Z,3.22
2019-02-06T08:26:34.092Z,3.24
2019-02-06T08:27:56.994Z,3.14
2019-02-06T08:29:08.367Z,3.28
2019-02-06T08:30:54.188Z,3.26
2019-02-06T08:32:17.100Z,3.26
2019-02-06T08:33:40.126Z,3.30
2019-02-06T08:35:03.439Z,3.34
2019-02-06T08:38:49.382Z,3.39
2019-02-06T08:39:51.915Z,3.42
2019-02-06T08:41:14.955Z,3.46
2019-02-06T08:42:38.173Z,3.48
2019-02-06T08:43:42.409Z,3.49
2019-02-06T08:45:05.776Z,3.53
2019-02-06T08:46:28.806Z,3.54
2019-02-06T08:47:51.836Z,3.59
2019-02-06T08:49:15.130Z,3.57
2019-02-06T08:50:58.899Z,3.59
2019-02-06T08:52:21.934Z,3.60
2019-02-06T08:53:45.022Z,3.63
2019-02-06T08:55:09.724Z,3.68
2019-02-06T08:56:53.291Z,3.68
2019-02-06T08:58:36.779Z,3.70
2019-02-06T08:59:41.090Z,3.71
2019-02-06T09:01:04.292Z,3.73
2019-02-06T09:02:27.302Z,3.77
2019-02-06T09:05:52.859Z,3.86
2019-02-06T09:06:56.827Z,3.80
2019-02-06T09:08:01.133Z,3.79
2019-02-06T09:09:46.679Z,3.78
2019-02-06T09:10:50.905Z,3.80
2019-02-06T09:12:14.131Z,3.81
2019-02-06T09:13:38.882Z,3.83
2019-02-06T09:15:01.902Z,3.87
2019-02-06T09:16:45.373Z,3.90
2019-02-06T09:18:08.594Z,3.92
2019-02-06T09:19:31.918Z,3.95
2019-02-06T09:22:19.374Z,4.14
2019-02-06T09:23:42.397Z,4.03
2019-02-06T09:25:07.005Z,4.05
2019-02-06T09:26:33.972Z,4.05
2019-02-06T09:27:54.732Z,4.05
2019-02-06T09:29:17.752Z,4.12
2019-02-06T09:31:02.347Z,4.04
2019-02-06T09:32:25.626Z,4.09
2019-02-06T09:33:49.034Z,4.00
2019-02-06T09:35:11.998Z,4.03
2019-02-06T09:36:36.686Z,4.03
2019-02-06T09:37:59.717Z,4.00
2019-02-06T09:40:45.845Z,3.95
2019-02-06T09:41:49.689Z,3.89
2019-02-06T09:43:12.803Z,3.98
2019-02-06T09:44:16.944Z,3.98
2019-02-06T09:45:20.918Z,4.04
2019-02-06T09:46:44.184Z,3.97
2019-02-06T09:47:49.911Z,3.96
2019-02-06T09:48:54.350Z,3.93
2019-02-06T09:50:17.318Z,3.94
2019-02-06T09:51:40.427Z,3.88
2019-02-06T09:53:04.007Z,3.92
2019-02-06T09:55:53.255Z,4.04
2019-02-06T09:56:56.779Z,4.01
2019-02-06T09:58:00.770Z,3.93
2019-02-06T09:59:23.794Z,3.95
2019-02-06T10:01:10.044Z,3.98
2019-02-06T10:02:33.255Z,3.98
2019-02-06T10:03:56.295Z,4.00
2019-02-06T10:05:19.573Z,4.03
2019-02-06T10:06:42.594Z,3.99
2019-02-06T10:07:46.600Z,4.02
2019-02-06T10:08:50.872Z,4.07
2019-02-06T10:10:14.162Z,4.12
2019-02-06T10:13:19.283Z,4.23
2019-02-06T10:14:42.378Z,4.29
2019-02-06T10:15:46.210Z,4.41
2019-02-06T10:17:09.775Z,4.45
2019-02-06T10:18:32.856Z,4.37
2019-02-06T10:19:55.974Z,4.38
2019-02-06T10:21:00.001Z,4.38
2019-02-06T10:22:23.186Z,4.31
2019-02-06T10:23:46.206Z,4.31
2019-02-06T10:24:50.371Z,4.36
2019-02-06T10:26:13.415Z,4.31
2019-02-06T10:27:17.662Z,4.29
2019-02-06T10:28:40.713Z,4.41
2019-02-06T10:30:04.061Z,4.50
2019-02-06T10:31:09.318Z,4.48
2019-02-06T10:32:32.652Z,4.51
2019-02-06T10:33:55.632Z,4.49
2019-02-06T10:35:20.246Z,4.51
2019-02-06T10:36:43.539Z,4.50
2019-02-06T10:38:07.408Z,4.44
2019-02-06T10:39:50.883Z,4.48
2019-02-06T10:41:13.936Z,4.43
2019-02-06T10:42:17.843Z,4.53
2019-02-06T10:43:41.231Z,4.55
2019-02-06T10:45:04.141Z,4.56
2019-02-06T10:46:08.384Z,4.60
2019-02-06T10:47:12.281Z,4.63
2019-02-06T10:48:16.495Z,4.67
2019-02-06T10:49:20.483Z,4.72
2019-02-06T10:50:25.726Z,4.78
2019-02-06T10:51:29.622Z,4.85
2019-02-06T10:52:33.522Z,4.89
2019-02-06T10:53:37.374Z,4.91
2019-02-06T10:54:41.458Z,4.96
2019-02-06T10:55:47.181Z,4.99
2019-02-06T10:56:53.250Z,5.03
2019-02-06T10:58:16.272Z,5.03
2019-02-06T10:59:39.270Z,5.06
2019-02-06T11:01:27.683Z,5.08
2019-02-06T11:02:50.994Z,5.08
2019-02-06T11:04:14.354Z,5.10
2019-02-06T11:05:37.323Z,5.12
2019-02-06T11:07:00.342Z,5.09
2019-02-06T11:08:43.813Z,5.07
2019-02-06T11:10:07.123Z,5.07
2019-02-06T11:11:11.634Z,5.11
2019-02-06T11:12:34.854Z,5.12
2019-02-06T11:13:38.683Z,5.10
2019-02-06T11:15:01.731Z,5.11
2019-02-06T11:16:24.696Z,5.13
2019-02-06T11:17:48.030Z,5.18
2019-02-06T11:19:11.386Z,5.31
2019-02-06T11:20:56.223Z,5.24
2019-02-06T11:22:19.499Z,5.26
2019-02-06T11:23:44.270Z,5.12
2019-02-06T11:25:07.172Z,5.04
2019-02-06T11:26:30.134Z,5.26
2019-02-06T11:27:53.431Z,5.24
2019-02-06T11:29:16.987Z,5.27
2019-02-06T11:31:01.846Z,5.32
2019-02-06T11:33:49.589Z,5.40
2019-02-06T11:35:14.365Z,5.44
2019-02-06T11:36:37.563Z,5.51
2019-02-06T11:37:41.831Z,5.53
2019-02-06T11:41:29.763Z,5.59
2019-02-06T11:46:17.319Z,5.75
2019-02-06T11:47:40.464Z,5.80
2019-02-06T11:48:44.628Z,5.78
2019-02-06T11:50:09.862Z,5.83
2019-02-06T11:51:32.887Z,5.94
2019-02-06T11:52:56.151Z,5.89
2019-02-06T11:54:19.418Z,5.88
2019-02-06T11:55:43.607Z,5.90
2019-02-06T11:56:47.563Z,5.96
2019-02-06T11:58:12.312Z,6.00
2019-02-06T11:59:16.488Z,6.01
2019-02-06T12:01:00.583Z,6.16
2019-02-06T12:04:08.594Z,6.13
2019-02-06T12:05:52.093Z,6.12
2019-02-06T12:07:15.419Z,6.17
2019-02-06T12:10:20.503Z,6.24
2019-02-06T12:11:43.710Z,6.31
2019-02-06T12:13:29.410Z,6.38
2019-02-06T12:14:52.391Z,6.35
2019-02-06T12:16:15.487Z,6.40
2019-02-06T12:17:38.738Z,6.39
2019-02-06T12:19:01.875Z,6.40
2019-02-06T12:20:08.759Z,6.48
2019-02-06T12:21:31.668Z,6.48
2019-02-06T12:22:54.804Z,6.50
2019-02-06T12:26:00.199Z,6.57
2019-02-06T12:27:23.298Z,6.66
2019-02-06T12:28:46.317Z,6.67
2019-02-06T12:31:55.675Z,6.69
2019-02-06T12:32:59.663Z,6.73
2019-02-06T12:35:47.614Z,6.87
2019-02-06T12:36:51.778Z,6.89
2019-02-06T12:37:55.769Z,6.89
2019-02-06T12:39:19.007Z,6.90
2019-02-06T12:43:34.910Z,6.97
2019-02-06T12:44:59.127Z,6.97
2019-02-06T12:46:23.074Z,6.81
2019-02-06T12:47:27.282Z,7.01
2019-02-06T12:48:31.761Z,7.07
2019-02-06T12:49:35.903Z,7.19
2019-02-06T12:50:40.115Z,7.21
2019-02-06T12:51:44.207Z,7.18
2019-02-06T12:52:48.153Z,7.14
2019-02-06T12:53:52.383Z,7.15
2019-02-06T12:54:56.463Z,7.27
2019-02-06T12:56:00.430Z,7.25
2019-02-06T12:57:04.653Z,7.25
2019-02-06T12:58:09.189Z,7.27
2019-02-06T12:59:13.402Z,7.32
2019-02-06T13:00:23.430Z,7.34
2019-02-06T13:01:27.563Z,7.36
2019-02-06T13:02:31.546Z,7.41
2019-02-06T13:03:35.768Z,7.45
2019-02-06T13:04:39.915Z,7.48
2019-02-06T13:05:44.126Z,7.53
2019-02-06T13:06:48.283Z,7.66
2019-02-06T13:07:52.542Z,7.67
2019-02-06T13:08:56.749Z,7.73
2019-02-06T13:10:00.718Z,7.73
2019-02-06T13:11:04.953Z,7.69
2019-02-06T13:12:09.183Z,7.60
2019-02-06T13:13:13.414Z,7.66
2019-02-06T13:14:17.804Z,7.65
2019-02-06T13:15:22.541Z,7.66
2019-02-06T13:16:26.790Z,7.57
2019-02-06T13:17:30.944Z,7.55
2019-02-06T13:18:34.768Z,7.55
2019-02-06T13:19:38.668Z,7.56
2019-02-06T13:20:54.622Z,7.56
2019-02-06T13:22:17.528Z,7.58
2019-02-06T13:23:42.271Z,7.61
2019-02-06T13:24:46.392Z,7.66
2019-02-06T13:26:09.332Z,7.65
2019-02-06T13:27:32.687Z,7.63
2019-02-06T13:28:55.635Z,7.70
2019-02-06T13:30:19.112Z,7.72
2019-02-06T13:31:44.091Z,7.65
2019-02-06T13:32:48.392Z,7.64
2019-02-06T13:34:11.748Z,7.71
2019-02-06T13:35:35.273Z,7.64
2019-02-06T13:36:39.411Z,7.60
2019-02-06T13:39:31.267Z,7.60
2019-02-06T13:40:56.345Z,7.63
2019-02-06T13:42:19.241Z,7.65
2019-02-06T13:43:23.162Z,7.64
2019-02-06T13:44:27.080Z,7.64
2019-02-06T13:45:33.540Z,7.62
2019-02-06T13:46:37.711Z,7.66
2019-02-06T13:48:01.376Z,7.65
2019-02-06T13:49:05.608Z,7.65
2019-02-06T13:50:49.584Z,7.66
2019-02-06T13:52:12.545Z,7.65
2019-02-06T13:53:37.587Z,7.68
2019-02-06T13:58:45.602Z,7.66
2019-02-06T13:59:49.584Z,7.68
2019-02-06T14:01:12.675Z,7.65
2019-02-06T14:04:17.896Z,7.68
2019-02-06T14:05:41.883Z,7.70
2019-02-06T14:07:05.086Z,7.70
2019-02-06T14:08:13.177Z,7.67
2019-02-06T14:11:01.240Z,7.67
2019-02-06T14:12:25.807Z,7.66
2019-02-06T14:13:49.201Z,7.65
2019-02-06T14:15:12.230Z,7.62
2019-02-06T14:18:20.303Z,7.63
2019-02-06T14:19:43.318Z,7.64
2019-02-06T14:21:10.242Z,7.64
2019-02-06T14:22:33.461Z,7.72
2019-02-06T14:24:15.615Z,7.71
2019-02-06T14:25:40.591Z,7.69
2019-02-06T14:27:26.945Z,7.67
2019-02-06T14:29:02.410Z,7.64
2019-02-06T14:30:44.550Z,7.64
2019-02-06T14:32:26.956Z,7.61
2019-02-06T14:34:15.263Z,7.59
2019-02-06T14:36:04.369Z,7.59
2019-02-06T14:37:46.746Z,7.60
2019-02-06T14:39:28.905Z,7.56
2019-02-06T14:41:11.290Z,7.62
2019-02-06T14:42:38.116Z,7.59
2019-02-06T14:44:20.275Z,7.54
2019-02-06T14:46:02.414Z,7.49
2019-02-06T14:47:32.475Z,7.51
2019-02-06T14:49:14.625Z,7.47
2019-02-06T14:50:56.773Z,7.45
2019-02-06T14:52:28.613Z,7.47
2019-02-06T14:54:10.991Z,7.46
2019-02-06T14:55:53.566Z,7.46
2019-02-06T14:57:35.951Z,7.41
2019-02-06T14:59:18.280Z,7.41
2019-02-06T15:01:02.078Z,7.37
2019-02-06T15:02:44.523Z,7.33
2019-02-06T15:04:27.048Z,7.35
2019-02-06T15:06:10.940Z,7.26
2019-02-06T15:07:53.086Z,7.24
2019-02-06T15:09:35.762Z,7.23
2019-02-06T15:11:20.126Z,7.21
2019-02-06T15:12:48.887Z,7.13
2019-02-06T15:14:31.329Z,7.10
2019-02-06T15:15:41.870Z,7.12
2019-02-06T15:17:24.250Z,7.15
2019-02-06T15:19:12.157Z,7.10
2019-02-06T15:20:54.343Z,6.97
2019-02-06T15:22:21.586Z,7.00
2019-02-06T15:24:03.727Z,6.95
2019-02-06T15:25:51.744Z,7.05
2019-02-06T15:27:33.951Z,7.00
2019-02-06T15:29:05.104Z,6.96
2019-02-06T15:32:34.699Z,6.94
2019-02-06T15:34:02.328Z,7.01
2019-02-06T15:35:44.502Z,7.01
2019-02-06T15:37:12.112Z,6.97
2019-02-06T15:38:54.492Z,6.95
2019-02-06T15:40:36.646Z,6.91
2019-02-06T15:42:18.865Z,6.87
2019-02-06T15:44:03.068Z,6.84
2019-02-06T15:45:45.487Z,6.76
2019-02-06T15:47:29.354Z,6.74
2019-02-06T15:49:16.286Z,6.72
2019-02-06T15:50:58.764Z,6.71
2019-02-06T15:52:40.975Z,6.73
2019-02-06T15:54:23.105Z,6.72
2019-02-06T15:56:05.314Z,6.70
2019-02-06T15:57:47.923Z,6.69
2019-02-06T15:59:30.086Z,6.65
2019-02-06T16:01:13.970Z,6.63
2019-02-06T16:02:56.351Z,6.59
2019-02-06T16:04:43.196Z,6.55
2019-02-06T16:06:28.584Z,6.55
2019-02-06T16:08:22.586Z,6.49
2019-02-06T16:09:47.785Z,6.46
2019-02-06T16:11:30.120Z,6.43
2019-02-06T16:13:12.508Z,6.44
2019-02-06T16:14:55.198Z,6.46
2019-02-06T16:16:34.919Z,6.46
2019-02-06T16:18:17.306Z,6.40
2019-02-06T16:20:05.526Z,6.39
2019-02-06T16:21:53.009Z,6.33
2019-02-06T16:23:16.279Z,6.29
2019-02-06T16:25:07.735Z,6.29
2019-02-06T16:26:47.370Z,6.25
2019-02-06T16:28:21.368Z,6.23
2019-02-06T16:30:00.021Z,6.19
2019-02-06T16:31:32.843Z,6.16
2019-02-06T16:33:03.434Z,6.13
2019-02-06T16:34:33.643Z,6.12
2019-02-06T16:36:10.327Z,6.13
2019-02-06T16:37:44.166Z,6.16
2019-02-06T16:39:13.279Z,6.13
2019-02-06T16:40:32.480Z,6.11
2019-02-06T16:41:53.089Z,6.03
2019-02-06T16:45:44.322Z,5.99
2019-02-06T16:47:45.600Z,5.92
2019-02-06T16:49:08.653Z,5.89
2019-02-06T16:50:36.102Z,5.92
2019-02-06T16:52:18.273Z,5.88
2019-02-06T16:53:46.701Z,5.87
2019-02-06T16:55:28.840Z,5.85
2019-02-06T16:57:11.228Z,5.87
2019-02-06T16:58:53.630Z,5.83
2019-02-06T17:00:36.029Z,5.80
2019-02-06T17:02:18.435Z,5.76
2019-02-06T17:03:49.741Z,5.69
2019-02-06T17:05:31.939Z,5.62
2019-02-06T17:07:07.730Z,5.50
2019-02-06T17:08:51.602Z,5.43
2019-02-06T17:10:33.986Z,5.36
2019-02-06T17:12:16.305Z,5.29
2019-02-06T17:13:58.460Z,5.24
2019-02-06T17:15:40.602Z,5.19
2019-02-06T17:17:22.744Z,5.22
2019-02-06T17:19:05.148Z,5.23
2019-02-06T17:20:38.896Z,5.15
2019-02-06T17:22:07.231Z,5.08
2019-02-06T17:23:51.129Z,5.05
2019-02-06T17:25:33.273Z,5.03
2019-02-06T17:27:15.493Z,5.01
2019-02-06T17:28:57.656Z,4.99
2019-02-06T17:30:40.102Z,4.99
2019-02-06T17:32:17.054Z,5.02
2019-02-06T17:33:59.217Z,5.03
2019-02-06T17:35:41.361Z,5.03
2019-02-06T17:37:23.775Z,5.06
2019-02-06T17:39:05.959Z,5.04
2019-02-06T17:40:48.099Z,5.11
2019-02-06T17:42:16.023Z,5.11
2019-02-06T17:43:58.750Z,5.13
2019-02-06T17:45:41.136Z,5.09
2019-02-06T17:47:23.278Z,5.05
2019-02-06T17:49:05.460Z,4.93
2019-02-06T17:50:47.906Z,4.93
2019-02-06T17:52:30.294Z,4.84
2019-02-06T17:54:12.690Z,4.84
2019-02-06T17:55:35.995Z,4.81
2019-02-06T17:56:59.133Z,4.81
2019-02-06T18:00:08.309Z,4.73
2019-02-06T18:01:33.036Z,4.68
2019-02-06T18:02:56.006Z,4.66
2019-02-06T18:04:03.673Z,4.64
2019-02-06T18:05:08.222Z,4.72
2019-02-06T18:06:12.998Z,4.75
2019-02-06T18:07:36.167Z,4.70
2019-02-06T18:09:19.642Z,4.70
2019-02-06T18:10:43.085Z,4.59
2019-02-06T18:12:28.655Z,4.55
2019-02-06T18:13:32.484Z,4.54
2019-02-06T18:14:55.859Z,4.52
2019-02-06T18:16:21.508Z,4.50
2019-02-06T18:17:25.138Z,4.53
2019-02-06T18:18:48.444Z,4.53
2019-02-06T18:20:11.870Z,4.52
2019-02-06T18:21:35.150Z,4.58
2019-02-06T18:22:58.170Z,4.60
2019-02-06T18:24:02.079Z,4.67
2019-02-06T18:25:47.738Z,4.60
2019-02-06T18:27:31.799Z,4.60
2019-02-06T18:28:57.770Z,4.59
2019-02-06T18:31:49.723Z,4.50
2019-02-06T18:33:34.062Z,4.41
2019-02-06T18:36:39.133Z,4.37
2019-02-06T18:38:22.886Z,4.36
2019-02-06T18:39:45.758Z,4.34
2019-02-06T18:42:38.753Z,4.35
2019-02-06T18:44:04.162Z,4.34
2019-02-06T18:45:11.748Z,4.34
2019-02-06T18:46:34.790Z,4.31
2019-02-06T18:47:58.159Z,4.30
2019-02-06T18:49:21.200Z,4.27
2019-02-06T18:51:04.774Z,4.28
2019-02-06T18:53:31.723Z,4.25
2019-02-06T18:56:36.781Z,4.25
2019-02-06T18:57:42.777Z,4.21
2019-02-06T18:59:06.083Z,4.23
2019-02-06T19:00:17.309Z,4.23
2019-02-06T19:02:00.798Z,4.23
2019-02-06T19:03:07.998Z,4.23
2019-02-06T19:04:32.943Z,4.21
2019-02-06T19:06:18.911Z,4.25
2019-02-06T19:07:23.723Z,4.19
2019-02-06T19:08:48.059Z,4.19
2019-02-06T19:09:51.961Z,4.16
2019-02-06T19:11:15.220Z,4.13
2019-02-06T19:12:19.928Z,4.11
2019-02-06T19:13:24.228Z,4.10
2019-02-06T19:14:28.650Z,4.09
2019-02-06T19:15:32.863Z,4.10
2019-02-06T19:16:37.097Z,4.09
2019-02-06T19:17:40.999Z,4.09
2019-02-06T19:18:45.003Z,4.09
2019-02-06T19:19:49.103Z,4.08
2019-02-06T19:20:53.265Z,4.07
2019-02-06T19:21:57.350Z,4.06
2019-02-06T19:23:01.554Z,4.06
2019-02-06T19:24:06.221Z,4.05
2019-02-06T19:25:10.739Z,3.92
2019-02-06T19:26:14.733Z,4.04
2019-02-06T19:27:18.629Z,4.04
2019-02-06T19:28:22.850Z,4.02
2019-02-06T19:29:27.251Z,4.02
2019-02-06T19:30:33.151Z,4.02